FD38 weather

Wellington Aero Club Airport
West Palm Beach, Florida, United States

Public forecast

Using degrees Fahrenheit for public forecast. Weather courtesy of forecast.io.

Closest aviation weather report (METAR) to Wellington Aero Club Airport

Closest report is Palm Beach International Airport, 10.9 nm (20.2 km) ENE. Retrieved 2020/05/25 10:14 UTC (25 minutes ago):

KPBI 251014Z 14013KT 6SM RA BR SCT022 BKN046 OVC090 25/23 A2989 RMK AO2 P0008 T02500233

Closest aviation forecast (TAF) to Wellington Aero Club Airport

Closest forecast is Palm Beach International Airport, 10.9 nm (20.2 km) ENE. Retrieved 2020/05/25 06:22 UTC (4 hours ago):

TAF KPBI 250520Z 2506/2606 11012G20KT 6SM SHRA BKN025 OVC045 FM251000 13012KT 5SM SHRA VCTS SCT010CB BKN025 FM251400 13015KT P6SM -SHRA VCTS SCT025CB BKN040